createdAt,value
2022-12-25T00:01:39.168Z,20.83
2022-12-25T00:04:05.712Z,30.35
2022-12-25T00:06:32.130Z,32.73
2022-12-25T00:08:58.552Z,27.30
2022-12-25T00:11:25.037Z,29.48
2022-12-25T00:13:51.515Z,32.88
2022-12-25T00:16:21.451Z,27.02
2022-12-25T00:18:48.543Z,22.67
2022-12-25T00:21:15.457Z,30.55
2022-12-25T00:23:42.078Z,24.77
2022-12-25T00:26:12.849Z,18.60
2022-12-25T00:28:39.561Z,25.42
2022-12-25T00:31:12.364Z,22.88
2022-12-25T00:33:40.274Z,23.58
2022-12-25T00:36:07.961Z,17.23
2022-12-25T00:38:36.075Z,20.38
2022-12-25T00:41:11.960Z,32.53
2022-12-25T00:43:38.821Z,25.98
2022-12-25T00:46:06.830Z,38.42
2022-12-25T00:48:34.762Z,20.10
2022-12-25T00:51:05.212Z,25.55
2022-12-25T00:53:32.173Z,28.23
2022-12-25T00:56:01.273Z,33.00
2022-12-25T00:58:30.541Z,28.33
2022-12-25T01:00:57.112Z,34.15
2022-12-25T01:03:24.165Z,29.50
2022-12-25T01:05:59.358Z,28.98
2022-12-25T01:08:29.103Z,32.20
2022-12-25T01:11:02.714Z,33.83
2022-12-25T01:13:30.225Z,28.15
2022-12-25T01:18:24.922Z,25.95
2022-12-25T01:20:51.909Z,40.33
2022-12-25T01:23:18.600Z,33.45
2022-12-25T01:25:45.108Z,33.58
2022-12-25T01:28:11.633Z,31.67
2022-12-25T01:30:38.051Z,34.95
2022-12-25T01:33:04.832Z,27.42
2022-12-25T01:35:31.298Z,27.92
2022-12-25T01:37:57.753Z,27.63
2022-12-25T01:40:24.237Z,40.45
2022-12-25T01:42:50.631Z,34.05
2022-12-25T01:45:33.621Z,34.38
2022-12-25T01:48:03.580Z,24.77
2022-12-25T01:50:30.196Z,32.17
2022-12-25T01:52:58.010Z,19.67
2022-12-25T01:55:25.071Z,26.83
2022-12-25T01:57:51.834Z,24.23
2022-12-25T02:00:18.386Z,29.65
2022-12-25T02:02:45.554Z,24.03
2022-12-25T02:05:17.918Z,22.45
2022-12-25T02:07:46.956Z,23.90
2022-12-25T02:10:14.011Z,21.80
2022-12-25T02:12:41.749Z,23.33
2022-12-25T02:15:12.683Z,28.63
2022-12-25T02:18:04.890Z,20.63
2022-12-25T02:20:35.040Z,27.58
2022-12-25T02:23:26.296Z,20.02
2022-12-25T02:26:17.252Z,20.17
2022-12-25T02:29:05.203Z,29.27
2022-12-25T02:31:59.800Z,22.52
2022-12-25T02:34:34.223Z,23.58
2022-12-25T02:37:14.214Z,19.02
2022-12-25T02:40:21.830Z,26.50
2022-12-25T02:43:34.902Z,22.05
2022-12-25T02:46:25.566Z,19.65
2022-12-25T02:49:17.774Z,15.98
2022-12-25T02:52:12.207Z,20.80
2022-12-25T02:55:02.149Z,20.77
2022-12-25T02:57:54.082Z,18.73
2022-12-25T03:00:39.427Z,18.52
2022-12-25T03:03:28.293Z,24.23
2022-12-25T03:06:17.692Z,18.85
2022-12-25T03:08:48.032Z,19.85
2022-12-25T03:11:32.445Z,28.65
2022-12-25T03:14:21.464Z,19.65
2022-12-25T03:16:50.850Z,29.48
2022-12-25T03:19:37.602Z,25.13
2022-12-25T03:22:25.542Z,19.80
2022-12-25T03:25:10.250Z,21.75
2022-12-25T03:27:39.359Z,23.80
2022-12-25T03:30:38.064Z,23.40
2022-12-25T03:33:43.892Z,18.88
2022-12-25T03:36:18.793Z,20.67
2022-12-25T03:39:37.406Z,22.92
2022-12-25T03:42:24.813Z,21.25
2022-12-25T03:45:25.497Z,18.30
2022-12-25T03:48:13.506Z,23.27
2022-12-25T03:51:30.371Z,17.05
2022-12-25T03:54:21.127Z,19.67
2022-12-25T03:57:06.412Z,18.95
2022-12-25T03:59:51.182Z,17.23
2022-12-25T04:02:36.074Z,19.98
2022-12-25T04:05:21.523Z,20.50
2022-12-25T04:08:06.387Z,28.25
2022-12-25T04:10:51.264Z,20.55
2022-12-25T04:13:36.149Z,20.20
2022-12-25T04:16:21.599Z,20.73
2022-12-25T04:19:06.283Z,18.40
2022-12-25T04:21:52.415Z,28.05
2022-12-25T04:24:37.355Z,18.25
2022-12-25T04:27:22.717Z,24.10
2022-12-25T04:30:07.787Z,22.60
2022-12-25T04:32:52.610Z,21.00
2022-12-25T04:35:37.442Z,20.73
2022-12-25T04:38:03.925Z,17.52
2022-12-25T04:40:30.401Z,18.80
2022-12-25T04:42:56.774Z,20.80
2022-12-25T04:45:23.260Z,20.63
2022-12-25T04:47:49.753Z,22.25
2022-12-25T04:50:16.281Z,24.55
2022-12-25T04:52:43.155Z,16.77
2022-12-25T04:55:11.542Z,23.90
2022-12-25T04:57:38.250Z,18.48
2022-12-25T05:00:06.021Z,18.60
2022-12-25T05:02:32.729Z,24.50
2022-12-25T05:04:59.327Z,18.17
2022-12-25T05:07:25.768Z,17.00
2022-12-25T05:09:52.212Z,20.33
2022-12-25T05:12:18.673Z,23.40
2022-12-25T05:14:45.154Z,15.20
2022-12-25T05:17:11.683Z,18.45
2022-12-25T05:19:38.233Z,22.63
2022-12-25T05:22:04.599Z,15.67
2022-12-25T05:24:31.131Z,17.92
2022-12-25T05:26:57.641Z,17.83
2022-12-25T05:29:24.080Z,22.15
2022-12-25T05:31:50.657Z,18.77
2022-12-25T05:34:17.103Z,24.17
2022-12-25T05:36:43.539Z,19.40
2022-12-25T05:39:09.953Z,17.20
2022-12-25T05:41:36.458Z,18.00
2022-12-25T05:44:03.030Z,19.27
2022-12-25T05:46:29.703Z,25.17
2022-12-25T05:48:56.319Z,20.02
2022-12-25T05:51:22.783Z,16.97
2022-12-25T05:53:49.176Z,14.85
2022-12-25T05:56:15.564Z,25.00
2022-12-25T05:58:42.024Z,24.27
2022-12-25T06:01:21.094Z,15.15
2022-12-25T06:03:47.789Z,16.27
2022-12-25T06:06:14.832Z,19.92
2022-12-25T06:08:41.515Z,17.55
2022-12-25T06:11:09.113Z,15.35
2022-12-25T06:13:36.418Z,17.60
2022-12-25T06:16:07.884Z,22.15
2022-12-25T06:18:39.658Z,14.90
2022-12-25T06:21:10.689Z,18.30
2022-12-25T06:23:38.409Z,16.30
2022-12-25T06:26:10.971Z,17.60
2022-12-25T06:28:38.011Z,22.90
2022-12-25T06:31:13.094Z,15.57
2022-12-25T06:33:39.934Z,20.38
2022-12-25T06:36:27.405Z,16.65
2022-12-25T06:38:54.440Z,21.83
2022-12-25T06:41:23.287Z,17.35
2022-12-25T06:43:54.437Z,19.15
2022-12-25T06:46:22.897Z,19.67
2022-12-25T06:48:49.832Z,16.00
2022-12-25T06:51:18.122Z,23.17
2022-12-25T06:53:44.602Z,18.27
2022-12-25T06:56:16.596Z,19.63
2022-12-25T06:58:48.076Z,18.08
2022-12-25T07:01:21.592Z,15.77
2022-12-25T07:03:51.438Z,16.10
2022-12-25T07:06:17.999Z,14.80
2022-12-25T07:08:44.503Z,24.17
2022-12-25T07:11:11.161Z,13.60
2022-12-25T07:13:37.623Z,19.03
2022-12-25T07:16:05.299Z,19.80
2022-12-25T07:18:32.442Z,16.52
2022-12-25T07:21:00.275Z,13.45
2022-12-25T07:23:26.860Z,14.55
2022-12-25T07:25:58.440Z,18.40
2022-12-25T07:28:25.556Z,17.23
2022-12-25T07:30:52.059Z,17.70
2022-12-25T07:33:18.767Z,18.50
2022-12-25T07:35:45.422Z,20.42
2022-12-25T07:38:11.926Z,17.50
2022-12-25T07:40:38.635Z,23.60
2022-12-25T07:43:05.081Z,15.30
2022-12-25T07:45:31.567Z,17.92
2022-12-25T07:48:04.476Z,20.23
2022-12-25T07:50:31.845Z,18.42
2022-12-25T07:52:58.435Z,20.45
2022-12-25T07:55:24.970Z,16.90
2022-12-25T07:57:52.263Z,18.83
2022-12-25T08:00:19.211Z,19.55
2022-12-25T08:02:45.777Z,17.48
2022-12-25T08:05:12.395Z,21.50
2022-12-25T08:07:38.871Z,14.10
2022-12-25T08:10:05.920Z,17.57
2022-12-25T08:12:32.306Z,18.02
2022-12-25T08:14:58.755Z,21.63
2022-12-25T08:17:25.171Z,24.60
2022-12-25T08:19:51.628Z,17.90
2022-12-25T08:22:18.094Z,22.95
2022-12-25T08:24:44.525Z,18.00
2022-12-25T08:27:13.943Z,19.35
2022-12-25T08:29:40.396Z,14.27
2022-12-25T08:32:06.830Z,15.45
2022-12-25T08:34:33.251Z,13.90
2022-12-25T08:36:59.733Z,17.87
2022-12-25T08:39:26.348Z,13.70
2022-12-25T08:41:52.804Z,12.70
2022-12-25T08:44:19.209Z,14.57
2022-12-25T08:46:45.731Z,12.80
2022-12-25T08:49:12.230Z,11.83
2022-12-25T08:51:39.145Z,12.75
2022-12-25T08:54:05.593Z,12.73
2022-12-25T08:56:32.542Z,16.42
2022-12-25T08:58:59.026Z,12.88
2022-12-25T09:01:25.531Z,13.57
2022-12-25T09:03:52.282Z,12.52
2022-12-25T09:06:18.871Z,14.52
2022-12-25T09:08:49.031Z,13.20
2022-12-25T09:11:20.783Z,16.58
2022-12-25T09:13:48.705Z,14.07
2022-12-25T09:16:20.027Z,12.45
2022-12-25T09:18:46.582Z,13.48
2022-12-25T09:21:15.330Z,12.80
2022-12-25T09:23:42.470Z,16.27
2022-12-25T09:26:12.227Z,11.05
2022-12-25T09:28:38.814Z,12.32
2022-12-25T09:31:06.013Z,13.73
2022-12-25T09:33:32.509Z,14.38
2022-12-25T09:36:01.738Z,11.63
2022-12-25T09:38:28.991Z,9.13
2022-12-25T09:41:07.561Z,14.75
2022-12-25T09:43:40.496Z,12.38
2022-12-25T09:46:13.942Z,11.90
2022-12-25T09:48:46.496Z,9.57
2022-12-25T09:51:17.161Z,9.98
2022-12-25T09:53:50.430Z,10.73
2022-12-25T09:56:25.473Z,8.07
2022-12-25T09:58:53.211Z,12.10
2022-12-25T10:01:19.745Z,8.10
2022-12-25T10:04:05.065Z,11.98
2022-12-25T10:07:11.536Z,8.23
2022-12-25T10:09:53.667Z,9.35
2022-12-25T10:12:49.321Z,12.52
2022-12-25T10:15:32.328Z,12.30
2022-12-25T10:18:23.631Z,9.07
2022-12-25T10:20:52.978Z,9.52
2022-12-25T10:23:25.546Z,12.32
2022-12-25T10:25:53.668Z,11.80
2022-12-25T10:28:29.867Z,11.13
2022-12-25T10:31:01.580Z,10.07
2022-12-25T10:33:28.471Z,12.13
2022-12-25T10:35:54.942Z,9.57
2022-12-25T10:38:21.437Z,10.05
2022-12-25T10:41:06.043Z,10.57
2022-12-25T10:43:58.589Z,10.27
2022-12-25T10:46:28.459Z,7.93
2022-12-25T10:49:02.098Z,7.93
2022-12-25T10:51:33.381Z,9.32
2022-12-25T10:54:02.627Z,7.93
2022-12-25T10:56:29.619Z,10.77
2022-12-25T10:59:07.091Z,14.13
2022-12-25T11:01:33.972Z,8.38
2022-12-25T11:04:00.693Z,8.07
2022-12-25T11:06:30.720Z,8.27
2022-12-25T11:09:00.130Z,8.52
2022-12-25T11:11:28.628Z,7.50
2022-12-25T11:13:58.751Z,11.80
2022-12-25T11:16:31.345Z,11.27
2022-12-25T11:18:58.909Z,10.60
2022-12-25T11:24:02.448Z,14.90
2022-12-25T11:26:46.916Z,9.95
2022-12-25T11:29:37.162Z,13.15
2022-12-25T11:32:06.347Z,9.63
2022-12-25T11:34:40.338Z,13.88
2022-12-25T11:37:14.527Z,11.32
2022-12-25T11:39:41.859Z,12.80
2022-12-25T11:42:39.976Z,14.35
2022-12-25T11:45:12.325Z,14.30
2022-12-25T11:47:59.837Z,10.07
2022-12-25T11:50:35.665Z,10.98
2022-12-25T11:53:05.872Z,21.48
2022-12-25T11:55:42.475Z,13.02
2022-12-25T11:58:21.167Z,11.60
2022-12-25T12:00:51.672Z,14.23
2022-12-25T12:03:24.961Z,11.45
2022-12-25T12:05:55.325Z,13.98
2022-12-25T12:08:21.771Z,11.90
2022-12-25T12:11:18.253Z,10.77
2022-12-25T12:14:15.599Z,12.02
2022-12-25T12:16:42.257Z,12.80
2022-12-25T12:19:30.509Z,10.90
2022-12-25T12:21:59.858Z,11.77
2022-12-25T12:24:40.129Z,10.85
2022-12-25T12:27:37.199Z,15.60
2022-12-25T12:30:06.081Z,11.52
2022-12-25T12:32:44.609Z,11.18
2022-12-25T12:35:21.019Z,11.30
2022-12-25T12:37:53.507Z,17.38
2022-12-25T12:40:33.952Z,16.67
2022-12-25T12:43:01.468Z,9.77
2022-12-25T12:45:35.932Z,12.95
2022-12-25T12:48:13.926Z,9.18
2022-12-25T12:50:41.908Z,17.50
2022-12-25T12:53:23.663Z,13.57
2022-12-25T12:55:51.569Z,12.63
2022-12-25T12:58:30.853Z,11.48
2022-12-25T13:01:35.363Z,15.10
2022-12-25T13:04:30.934Z,12.55
2022-12-25T13:07:17.696Z,13.80
2022-12-25T13:10:32.288Z,12.25
2022-12-25T13:13:02.872Z,11.32
2022-12-25T13:15:33.848Z,13.15
2022-12-25T13:18:04.589Z,16.58
2022-12-25T13:20:39.754Z,11.57
2022-12-25T13:23:24.573Z,13.82
2022-12-25T13:25:56.224Z,18.00
2022-12-25T13:28:31.182Z,12.10
2022-12-25T13:31:12.681Z,13.60
2022-12-25T13:33:40.327Z,14.70
2022-12-25T13:36:12.518Z,11.40
2022-12-25T13:38:45.272Z,13.68
2022-12-25T13:41:34.775Z,16.45
2022-12-25T13:44:02.251Z,14.52
2022-12-25T13:49:01.288Z,14.57
2022-12-25T13:51:28.374Z,13.30
2022-12-25T13:54:05.849Z,16.67
2022-12-25T13:56:34.313Z,18.70
2022-12-25T13:59:00.774Z,18.70
2022-12-25T14:01:28.454Z,15.77
2022-12-25T14:03:55.364Z,15.18
2022-12-25T14:06:27.286Z,15.02
2022-12-25T14:08:56.220Z,18.85
2022-12-25T14:11:25.185Z,14.85
2022-12-25T14:13:57.763Z,11.32
2022-12-25T14:16:25.687Z,16.13
2022-12-25T14:18:57.362Z,14.48
2022-12-25T14:21:38.582Z,14.90
2022-12-25T14:24:13.470Z,12.82
2022-12-25T14:26:40.185Z,13.63
2022-12-25T14:29:16.551Z,18.08
2022-12-25T14:31:45.186Z,13.30
2022-12-25T14:34:18.519Z,20.85
2022-12-25T14:36:45.531Z,16.88
2022-12-25T14:39:37.518Z,18.58
2022-12-25T14:42:20.345Z,19.17
2022-12-25T14:44:59.391Z,17.80
2022-12-25T14:47:26.453Z,20.60
2022-12-25T14:49:54.554Z,18.73
2022-12-25T14:52:27.211Z,18.27
2022-12-25T14:55:02.724Z,18.17
2022-12-25T14:57:40.374Z,20.95
2022-12-25T15:00:08.915Z,24.38
2022-12-25T15:02:42.878Z,22.80
2022-12-25T15:05:29.780Z,21.42
2022-12-25T15:08:01.610Z,19.77
2022-12-25T15:10:59.114Z,23.40
2022-12-25T15:13:17.811Z,20.73
2022-12-25T15:15:51.564Z,18.25
2022-12-25T15:18:20.199Z,20.30
2022-12-25T15:20:46.678Z,20.52
2022-12-25T15:23:19.955Z,18.70
2022-12-25T15:25:47.599Z,22.30
2022-12-25T15:28:14.289Z,19.27
2022-12-25T15:30:40.960Z,20.52
2022-12-25T15:33:13.177Z,18.58
2022-12-25T15:35:39.721Z,20.17
2022-12-25T15:38:06.289Z,19.97
2022-12-25T15:40:32.833Z,22.05
2022-12-25T15:42:59.854Z,19.17
2022-12-25T15:45:30.273Z,26.05
2022-12-25T15:47:57.450Z,25.08
2022-12-25T15:50:24.478Z,19.77
2022-12-25T15:52:51.015Z,22.33
2022-12-25T15:55:17.582Z,21.00
2022-12-25T15:57:47.485Z,25.70
2022-12-25T16:00:22.469Z,36.78
2022-12-25T16:02:50.314Z,29.67
2022-12-25T16:05:17.091Z,28.85
2022-12-25T16:07:43.485Z,28.87
2022-12-25T16:10:19.404Z,27.15
2022-12-25T16:12:46.624Z,29.73
2022-12-25T16:15:14.855Z,24.20
2022-12-25T16:17:42.195Z,29.73
2022-12-25T16:20:09.091Z,26.77
2022-12-25T16:22:39.742Z,22.70
2022-12-25T16:25:13.299Z,29.52
2022-12-25T16:27:39.704Z,29.33
2022-12-25T16:30:06.854Z,26.13
2022-12-25T16:32:33.378Z,26.88
2022-12-25T16:34:59.805Z,26.73
2022-12-25T16:37:27.573Z,30.40
2022-12-25T16:39:53.999Z,36.13
2022-12-25T16:42:20.601Z,37.90
2022-12-25T16:44:47.030Z,43.38
2022-12-25T16:47:13.443Z,52.40
2022-12-25T16:49:39.915Z,42.33
2022-12-25T16:52:06.363Z,47.25
2022-12-25T16:54:32.897Z,45.83
2022-12-25T16:56:59.466Z,46.27
2022-12-25T16:59:28.450Z,49.58
2022-12-25T17:01:54.975Z,51.50
2022-12-25T17:04:22.101Z,46.95
2022-12-25T17:06:48.774Z,42.97
2022-12-25T17:09:15.183Z,43.35
2022-12-25T17:11:41.645Z,40.47
2022-12-25T17:14:08.202Z,45.30
2022-12-25T17:16:36.329Z,37.23
2022-12-25T17:19:07.909Z,38.10
2022-12-25T17:21:34.914Z,32.83
2022-12-25T17:24:04.013Z,29.05
2022-12-25T17:26:32.399Z,32.15
2022-12-25T17:28:58.900Z,28.25
2022-12-25T17:31:25.674Z,28.87
2022-12-25T17:33:52.216Z,29.85
2022-12-25T17:36:20.411Z,29.87
2022-12-25T17:38:47.672Z,28.70
2022-12-25T17:41:15.990Z,28.05
2022-12-25T17:43:44.237Z,28.95
2022-12-25T17:46:25.304Z,31.35
2022-12-25T17:48:52.719Z,32.40
2022-12-25T17:53:50.980Z,32.80
2022-12-25T17:56:19.181Z,29.20
2022-12-25T17:58:51.591Z,31.10
2022-12-25T18:01:19.065Z,28.65
2022-12-25T18:03:46.561Z,30.63
2022-12-25T18:11:11.747Z,37.42
2022-12-25T18:13:38.311Z,38.45
2022-12-25T18:16:07.065Z,39.00
2022-12-25T18:18:34.702Z,35.67
2022-12-25T18:21:02.205Z,36.00
2022-12-25T18:23:28.948Z,41.42
2022-12-25T18:25:55.497Z,36.00
2022-12-25T18:28:22.005Z,35.77
2022-12-25T18:30:48.569Z,42.10
2022-12-25T18:33:15.036Z,39.42
2022-12-25T18:35:43.193Z,48.42
2022-12-25T18:38:13.328Z,46.60
2022-12-25T18:40:44.934Z,62.83
2022-12-25T18:43:12.031Z,57.35
2022-12-25T18:45:38.728Z,64.93
2022-12-25T18:48:06.425Z,56.40
2022-12-25T18:50:34.705Z,49.65
2022-12-25T18:53:01.736Z,60.60
2022-12-25T18:55:28.556Z,61.13
2022-12-25T18:57:55.526Z,60.63
2022-12-25T19:00:22.692Z,55.22
2022-12-25T19:02:49.753Z,52.85
2022-12-25T19:05:16.997Z,68.25
2022-12-25T19:07:43.783Z,56.20
2022-12-25T19:10:10.434Z,69.28
2022-12-25T19:12:37.126Z,60.50
2022-12-25T19:15:03.968Z,66.32
2022-12-25T19:17:32.082Z,72.88
2022-12-25T19:19:58.957Z,67.88
2022-12-25T19:22:26.539Z,77.63
2022-12-25T19:24:52.973Z,78.53
2022-12-25T19:27:19.473Z,64.25
2022-12-25T19:29:45.938Z,66.83
2022-12-25T19:32:12.493Z,61.37
2022-12-25T19:34:38.992Z,49.27
2022-12-25T19:37:05.863Z,45.53
2022-12-25T19:39:32.300Z,45.40
2022-12-25T19:41:58.773Z,55.77
2022-12-25T19:44:25.246Z,54.25
2022-12-25T19:46:51.666Z,60.50
2022-12-25T19:49:18.064Z,60.95
2022-12-25T19:51:46.197Z,53.88
2022-12-25T19:54:14.852Z,54.40
2022-12-25T19:56:42.182Z,48.80
2022-12-25T19:59:09.137Z,78.22
2022-12-25T20:01:35.726Z,102.72
2022-12-25T20:04:02.426Z,101.47
2022-12-25T20:06:31.445Z,76.60
2022-12-25T20:09:01.729Z,78.18
2022-12-25T20:11:30.344Z,79.35
2022-12-25T20:13:57.169Z,68.70
2022-12-25T20:16:24.756Z,59.45
2022-12-25T20:18:51.747Z,65.65
2022-12-25T20:21:20.905Z,57.55
2022-12-25T20:23:49.960Z,55.08
2022-12-25T20:26:18.617Z,43.45
2022-12-25T20:28:45.356Z,45.25
2022-12-25T20:31:16.687Z,45.38
2022-12-25T20:33:43.710Z,40.83
2022-12-25T20:36:10.729Z,54.72
2022-12-25T20:38:37.437Z,54.53
2022-12-25T20:43:53.453Z,59.28
2022-12-25T20:46:20.034Z,49.00
2022-12-25T20:48:46.946Z,54.60
2022-12-25T20:51:16.702Z,50.22
2022-12-25T20:53:43.904Z,37.70
2022-12-25T20:56:15.256Z,39.42
2022-12-25T20:58:41.950Z,39.05
2022-12-25T21:01:12.114Z,40.55
2022-12-25T21:03:39.083Z,32.58
2022-12-25T21:06:06.304Z,33.08
2022-12-25T21:08:32.972Z,33.78
2022-12-25T21:11:00.938Z,33.33
2022-12-25T21:13:36.502Z,31.75
2022-12-25T21:16:09.323Z,33.17
2022-12-25T21:18:35.853Z,30.48
2022-12-25T21:21:05.675Z,29.43
2022-12-25T21:23:36.702Z,32.22
2022-12-25T21:26:19.080Z,28.27
2022-12-25T21:28:50.572Z,28.33
2022-12-25T21:31:17.747Z,26.60
2022-12-25T21:33:53.620Z,32.13
2022-12-25T21:36:22.281Z,25.63
2022-12-25T21:38:53.332Z,37.85
2022-12-25T21:41:20.114Z,28.33
2022-12-25T21:43:46.668Z,31.17
2022-12-25T21:46:14.738Z,29.77
2022-12-25T21:48:42.099Z,27.55
2022-12-25T21:51:37.375Z,31.08
2022-12-25T21:54:04.461Z,27.73
2022-12-25T21:56:34.380Z,30.55
2022-12-25T21:59:04.311Z,29.00
2022-12-25T22:01:31.534Z,31.40
2022-12-25T22:04:06.912Z,31.02
2022-12-25T22:06:52.673Z,32.42
2022-12-25T22:09:19.958Z,31.83
2022-12-25T22:12:05.001Z,33.40
2022-12-25T22:14:54.168Z,36.67
2022-12-25T22:17:42.858Z,32.65
2022-12-25T22:20:12.858Z,36.03
2022-12-25T22:22:39.288Z,32.80
2022-12-25T22:25:06.901Z,30.88
2022-12-25T22:27:35.868Z,32.70
2022-12-25T22:30:02.463Z,31.85
2022-12-25T22:32:28.943Z,31.27
2022-12-25T22:34:55.394Z,28.00
2022-12-25T22:37:22.200Z,29.10
2022-12-25T22:39:48.647Z,32.28
2022-12-25T22:42:15.831Z,31.52
2022-12-25T22:44:42.391Z,27.08
2022-12-25T22:47:09.134Z,28.70
2022-12-25T22:49:35.697Z,29.73
2022-12-25T22:52:02.426Z,26.97
2022-12-25T22:54:31.371Z,29.05
2022-12-25T22:56:58.500Z,27.02
2022-12-25T22:59:25.373Z,28.67
2022-12-25T23:01:51.991Z,23.73
2022-12-25T23:04:18.562Z,30.13
2022-12-25T23:06:46.500Z,28.13
2022-12-25T23:09:20.449Z,27.88
2022-12-25T23:11:50.770Z,26.33
2022-12-25T23:14:36.040Z,26.13
2022-12-25T23:17:02.474Z,26.23
2022-12-25T23:19:47.640Z,29.35
2022-12-25T23:22:32.412Z,27.20
2022-12-25T23:25:17.643Z,26.70
2022-12-25T23:27:45.410Z,22.73
2022-12-25T23:30:14.524Z,23.52
2022-12-25T23:32:42.526Z,24.35
2022-12-25T23:35:10.166Z,22.92
2022-12-25T23:37:36.581Z,26.02
2022-12-25T23:40:04.407Z,25.30
2022-12-25T23:42:30.863Z,23.45
2022-12-25T23:44:57.296Z,25.65
2022-12-25T23:47:23.703Z,27.33
2022-12-25T23:49:50.100Z,25.02
2022-12-25T23:52:16.542Z,26.95
2022-12-25T23:54:43.000Z,22.85
2022-12-25T23:57:09.395Z,25.92
2022-12-25T23:59:35.827Z,25.95
